createdAt,value
2018-04-23T00:01:04.957Z,43.30
2018-04-23T00:03:16.133Z,42.88
2018-04-23T00:05:27.239Z,42.38
2018-04-23T00:07:38.329Z,42.25
2018-04-23T00:09:49.429Z,42.76
2018-04-23T00:12:00.554Z,43.56
2018-04-23T00:14:11.709Z,43.93
2018-04-23T00:16:22.786Z,42.58
2018-04-23T00:18:33.941Z,42.27
2018-04-23T00:20:45.051Z,42.48
2018-04-23T00:22:56.139Z,42.64
2018-04-23T00:25:07.195Z,42.88
2018-04-23T00:27:18.326Z,43.01
2018-04-23T00:29:29.486Z,43.04
2018-04-23T00:31:40.548Z,43.06
2018-04-23T00:33:51.698Z,42.97
2018-04-23T00:36:02.773Z,43.46
2018-04-23T00:38:13.862Z,43.45
2018-04-23T00:40:24.929Z,42.79
2018-04-23T00:42:36.049Z,43.24
2018-04-23T00:44:47.120Z,43.17
2018-04-23T00:46:58.202Z,43.08
2018-04-23T00:49:09.326Z,43.13
2018-04-23T00:51:20.436Z,43.92
2018-04-23T00:53:37.769Z,44.38
2018-04-23T00:55:48.825Z,44.82
2018-04-23T00:58:00.002Z,45.24
2018-04-23T01:00:11.089Z,45.46
2018-04-23T01:02:22.182Z,45.49
2018-04-23T01:04:33.279Z,45.60
2018-04-23T01:06:44.377Z,45.49
2018-04-23T01:08:55.481Z,46.05
2018-04-23T01:11:06.678Z,46.00
2018-04-23T01:13:17.797Z,46.11
2018-04-23T01:15:28.893Z,45.65
2018-04-23T01:17:40.133Z,45.76
2018-04-23T01:19:51.225Z,45.71
2018-04-23T01:22:02.287Z,46.21
2018-04-23T01:24:13.356Z,46.88
2018-04-23T01:26:24.455Z,47.58
2018-04-23T01:28:35.558Z,47.47
2018-04-23T01:30:46.674Z,47.55
2018-04-23T01:32:57.746Z,46.78
2018-04-23T01:35:08.790Z,46.06
2018-04-23T01:37:19.866Z,46.13
2018-04-23T01:39:30.919Z,46.45
2018-04-23T01:41:42.163Z,46.37
2018-04-23T01:43:53.204Z,47.07
2018-04-23T01:46:04.325Z,46.80
2018-04-23T01:48:15.409Z,47.03
2018-04-23T01:50:26.485Z,47.31
2018-04-23T01:52:37.554Z,47.57
2018-04-23T01:54:48.629Z,47.44
2018-04-23T01:56:59.678Z,47.42
2018-04-23T01:59:10.735Z,47.74
2018-04-23T02:01:21.851Z,46.98
2018-04-23T02:03:32.906Z,47.24
2018-04-23T02:05:44.088Z,47.53
2018-04-23T02:07:55.136Z,48.00
2018-04-23T02:10:06.326Z,47.83
2018-04-23T02:12:17.427Z,48.05
2018-04-23T02:14:28.516Z,48.41
2018-04-23T02:16:39.582Z,48.37
2018-04-23T02:18:50.638Z,48.44
2018-04-23T02:21:01.807Z,48.47
2018-04-23T02:23:12.997Z,48.33
2018-04-23T02:25:24.127Z,48.81
2018-04-23T02:27:35.210Z,49.07
2018-04-23T02:29:46.314Z,49.36
2018-04-23T02:31:57.397Z,49.23
2018-04-23T02:34:08.465Z,49.52
2018-04-23T02:36:19.524Z,49.79
2018-04-23T02:38:30.722Z,49.87
2018-04-23T02:40:41.858Z,49.80
2018-04-23T02:42:52.974Z,49.24
2018-04-23T02:45:04.029Z,49.19
2018-04-23T02:47:15.061Z,48.99
2018-04-23T02:49:26.205Z,48.92
2018-04-23T02:51:37.292Z,49.08
2018-04-23T02:53:48.474Z,49.00
2018-04-23T02:55:59.550Z,48.74
2018-04-23T02:58:10.682Z,49.03
2018-04-23T03:00:21.758Z,49.29
2018-04-23T03:02:32.896Z,49.40
2018-04-23T03:04:43.954Z,49.39
2018-04-23T03:06:55.027Z,49.30
2018-04-23T03:09:06.110Z,49.64
2018-04-23T03:11:17.174Z,50.24
2018-04-23T03:13:28.365Z,49.92
2018-04-23T03:15:39.478Z,50.12
2018-04-23T03:17:50.582Z,50.05
2018-04-23T03:20:01.746Z,50.06
2018-04-23T03:22:19.741Z,49.97
2018-04-23T03:24:30.913Z,50.00
2018-04-23T03:26:42.051Z,50.33
2018-04-23T03:28:53.212Z,50.62
2018-04-23T03:31:04.361Z,50.38
2018-04-23T03:33:15.417Z,50.47
2018-04-23T03:35:26.754Z,50.63
2018-04-23T03:37:37.832Z,50.46
2018-04-23T03:39:49.672Z,50.50
2018-04-23T03:42:00.831Z,50.73
2018-04-23T03:44:11.939Z,50.98
2018-04-23T03:46:23.046Z,50.94
2018-04-23T03:48:34.165Z,51.34
2018-04-23T03:50:45.245Z,51.04
2018-04-23T03:52:56.390Z,51.21
2018-04-23T03:55:07.478Z,51.09
2018-04-23T03:57:18.601Z,51.22
2018-04-23T03:59:29.702Z,51.05
2018-04-23T04:01:40.913Z,51.32
2018-04-23T04:03:51.970Z,51.30
2018-04-23T04:06:03.093Z,51.07
2018-04-23T04:08:14.194Z,51.46
2018-04-23T04:10:25.308Z,51.09
2018-04-23T04:12:48.498Z,51.31
2018-04-23T04:15:11.946Z,51.15
2018-04-23T04:17:35.850Z,50.90
2018-04-23T04:19:46.945Z,51.00
2018-04-23T04:21:58.029Z,51.07
2018-04-23T04:24:09.129Z,51.73
2018-04-23T04:26:20.337Z,52.00
2018-04-23T04:28:32.257Z,52.55
2018-04-23T04:30:43.317Z,52.81
2018-04-23T04:32:54.473Z,52.67
2018-04-23T04:35:05.564Z,53.20
2018-04-23T04:37:16.686Z,53.27
2018-04-23T04:39:27.757Z,53.30
2018-04-23T04:41:39.065Z,53.48
2018-04-23T04:43:50.165Z,54.07
2018-04-23T04:46:01.259Z,53.66
2018-04-23T04:48:12.369Z,53.69
2018-04-23T04:50:23.489Z,53.75
2018-04-23T04:52:34.562Z,53.88
2018-04-23T04:54:45.661Z,53.96
2018-04-23T04:56:56.829Z,53.74
2018-04-23T04:59:07.930Z,54.34
2018-04-23T05:01:18.993Z,53.88
2018-04-23T05:03:30.137Z,53.32
2018-04-23T05:05:41.220Z,53.43
2018-04-23T05:07:52.282Z,52.87
2018-04-23T05:10:03.427Z,51.95
2018-04-23T05:12:14.574Z,52.46
2018-04-23T05:14:25.756Z,52.78
2018-04-23T05:16:36.897Z,52.15
2018-04-23T05:18:47.993Z,52.63
2018-04-23T05:20:59.075Z,52.18
2018-04-23T05:23:10.132Z,52.11
2018-04-23T05:25:21.201Z,51.93
2018-04-23T05:27:32.306Z,52.07
2018-04-23T05:29:43.435Z,51.71
2018-04-23T05:31:54.623Z,51.56
2018-04-23T05:34:05.726Z,50.74
2018-04-23T05:36:16.799Z,50.64
2018-04-23T05:38:27.850Z,50.62
2018-04-23T05:40:38.922Z,49.92
2018-04-23T05:42:49.981Z,49.81
2018-04-23T05:45:01.144Z,49.86
2018-04-23T05:47:13.127Z,48.92
2018-04-23T05:49:24.171Z,48.25
2018-04-23T05:51:35.270Z,47.26
2018-04-23T05:53:46.301Z,46.24
2018-04-23T05:55:57.782Z,45.52
2018-04-23T05:58:08.830Z,45.04
2018-04-23T06:00:20.175Z,45.05
2018-04-23T06:02:31.358Z,44.45
2018-04-23T06:04:42.446Z,43.78
2018-04-23T06:06:53.549Z,43.38
2018-04-23T06:09:04.622Z,43.80
2018-04-23T06:11:15.702Z,45.04
2018-04-23T06:13:26.831Z,44.50
2018-04-23T06:15:37.890Z,44.88
2018-04-23T06:17:48.977Z,43.20
2018-04-23T06:20:00.053Z,44.07
2018-04-23T06:22:11.221Z,43.84
2018-04-23T06:24:22.268Z,44.50
2018-04-23T06:26:33.321Z,44.95
2018-04-23T06:28:44.399Z,45.25
2018-04-23T06:30:55.491Z,44.94
2018-04-23T06:33:06.602Z,44.67
2018-04-23T06:35:17.742Z,44.83
2018-04-23T06:37:28.931Z,44.99
2018-04-23T06:39:40.008Z,45.52
2018-04-23T06:41:51.063Z,44.86
2018-04-23T06:44:02.143Z,44.44
2018-04-23T06:46:13.229Z,42.61
2018-04-23T06:48:24.291Z,42.39
2018-04-23T06:50:35.357Z,42.04
2018-04-23T06:52:46.423Z,42.06
2018-04-23T06:54:57.509Z,41.36
2018-04-23T06:57:08.570Z,41.63
2018-04-23T06:59:19.629Z,41.50
2018-04-23T07:01:30.693Z,41.36
2018-04-23T07:03:41.778Z,41.77
2018-04-23T07:05:52.951Z,41.04
2018-04-23T07:08:04.026Z,41.09
2018-04-23T07:10:15.137Z,41.32
2018-04-23T07:12:26.198Z,41.51
2018-04-23T07:14:37.309Z,41.84
2018-04-23T07:16:48.363Z,41.84
2018-04-23T07:18:59.455Z,41.55
2018-04-23T07:21:10.492Z,40.95
2018-04-23T07:23:21.585Z,42.33
2018-04-23T07:25:32.673Z,41.19
2018-04-23T07:27:43.878Z,41.64
2018-04-23T07:29:54.918Z,40.04
2018-04-23T07:32:05.982Z,40.76
2018-04-23T07:34:17.027Z,40.78
2018-04-23T07:36:28.090Z,41.57
2018-04-23T07:38:39.182Z,42.08
2018-04-23T07:40:50.222Z,44.47
2018-04-23T07:43:01.426Z,44.28
2018-04-23T07:45:12.480Z,43.68
2018-04-23T07:47:23.547Z,42.99
2018-04-23T07:49:34.594Z,43.20
2018-04-23T07:51:45.670Z,42.57
2018-04-23T07:53:56.746Z,42.22
2018-04-23T07:56:07.886Z,42.18
2018-04-23T07:58:19.007Z,42.85
2018-04-23T08:00:30.098Z,42.73
2018-04-23T08:02:41.147Z,42.93
2018-04-23T08:04:52.233Z,42.45
2018-04-23T08:07:03.294Z,42.05
2018-04-23T08:09:14.376Z,42.60
2018-04-23T08:11:25.534Z,42.17
2018-04-23T08:13:36.717Z,42.42
2018-04-23T08:15:47.898Z,42.41
2018-04-23T08:17:59.078Z,42.90
2018-04-23T08:20:10.127Z,43.02
2018-04-23T08:22:21.210Z,43.87
2018-04-23T08:24:32.558Z,43.45
2018-04-23T08:26:43.634Z,43.61
2018-04-23T08:28:54.717Z,43.48
2018-04-23T08:31:05.771Z,44.18
2018-04-23T08:33:16.894Z,44.55
2018-04-23T08:35:28.118Z,44.11
2018-04-23T08:37:39.166Z,44.37
2018-04-23T08:39:50.220Z,44.35
2018-04-23T08:42:01.277Z,45.20
2018-04-23T08:44:12.321Z,45.04
2018-04-23T08:46:23.491Z,45.54
2018-04-23T08:48:34.546Z,45.31
2018-04-23T08:50:45.678Z,45.89
2018-04-23T08:52:56.738Z,46.14
2018-04-23T08:55:07.858Z,47.77
2018-04-23T08:57:18.921Z,49.49
2018-04-23T08:59:29.978Z,51.44
2018-04-23T09:01:41.050Z,52.30
2018-04-23T09:03:52.106Z,54.12
2018-04-23T09:06:03.226Z,55.57
2018-04-23T09:08:14.330Z,56.63
2018-04-23T09:10:25.422Z,56.72
2018-04-23T09:12:36.495Z,57.23
2018-04-23T09:14:47.548Z,56.33
2018-04-23T09:16:58.630Z,56.92
2018-04-23T09:19:09.689Z,54.37
2018-04-23T09:21:20.722Z,54.91
2018-04-23T09:23:31.857Z,53.90
2018-04-23T09:25:42.927Z,53.00
2018-04-23T09:27:54.038Z,52.58
2018-04-23T09:30:05.115Z,50.92
2018-04-23T09:32:16.193Z,52.00
2018-04-23T09:34:27.286Z,51.78
2018-04-23T09:36:38.326Z,51.25
2018-04-23T09:38:49.513Z,50.65
2018-04-23T09:41:00.586Z,49.00
2018-04-23T09:43:11.727Z,48.44
2018-04-23T09:45:22.902Z,48.55
2018-04-23T09:47:34.042Z,48.86
2018-04-23T09:49:45.117Z,49.58
2018-04-23T09:51:56.174Z,49.33
2018-04-23T09:54:07.283Z,49.42
2018-04-23T09:56:18.375Z,50.11
2018-04-23T09:58:30.494Z,49.19
2018-04-23T10:00:41.638Z,48.81
2018-04-23T10:02:52.695Z,48.63
2018-04-23T10:05:03.986Z,47.41
2018-04-23T10:07:15.038Z,47.94
2018-04-23T10:09:26.192Z,47.26
2018-04-23T10:11:37.352Z,47.35
2018-04-23T10:13:48.482Z,46.41
2018-04-23T10:15:59.566Z,45.97
2018-04-23T10:18:10.622Z,46.15
2018-04-23T10:20:21.678Z,47.88
2018-04-23T10:22:32.788Z,48.41
2018-04-23T10:24:43.869Z,48.89
2018-04-23T10:26:54.931Z,50.38
2018-04-23T10:29:06.152Z,50.75
2018-04-23T10:31:17.378Z,48.73
2018-04-23T10:33:28.497Z,48.17
2018-04-23T10:35:39.559Z,48.32
2018-04-23T10:37:50.642Z,48.14
2018-04-23T10:40:01.699Z,49.14
2018-04-23T10:42:12.788Z,50.65
2018-04-23T10:44:23.920Z,51.72
2018-04-23T10:46:34.995Z,52.14
2018-04-23T10:48:46.078Z,52.83
2018-04-23T10:50:57.138Z,53.29
2018-04-23T10:53:08.217Z,54.01
2018-04-23T10:55:19.293Z,54.89
2018-04-23T10:57:30.375Z,54.87
2018-04-23T10:59:41.494Z,56.20
2018-04-23T11:01:52.612Z,55.62
2018-04-23T11:04:03.798Z,55.92
2018-04-23T11:06:14.846Z,58.36
2018-04-23T11:08:26.039Z,57.38
2018-04-23T11:10:37.161Z,56.95
2018-04-23T11:12:48.383Z,57.40
2018-04-23T11:14:59.484Z,57.49
2018-04-23T11:17:10.541Z,58.78
2018-04-23T11:19:21.638Z,59.18
2018-04-23T11:21:32.674Z,58.56
2018-04-23T11:23:43.805Z,57.79
2018-04-23T11:25:54.926Z,59.59
2018-04-23T11:28:06.042Z,57.81
2018-04-23T11:30:17.150Z,57.20
2018-04-23T11:32:28.260Z,59.09
2018-04-23T11:34:39.290Z,59.57
2018-04-23T11:36:50.406Z,57.41
2018-04-23T11:39:01.457Z,55.94
2018-04-23T11:41:12.586Z,55.55
2018-04-23T11:43:23.673Z,55.77
2018-04-23T11:45:34.746Z,55.31
2018-04-23T11:47:45.808Z,55.80
2018-04-23T11:49:56.887Z,55.47
2018-04-23T11:52:08.209Z,55.64
2018-04-23T11:54:19.250Z,55.77
2018-04-23T11:56:30.340Z,55.34
2018-04-23T11:58:41.429Z,55.42
2018-04-23T12:00:52.587Z,55.35
2018-04-23T12:03:03.659Z,55.07
2018-04-23T12:05:14.791Z,57.07
2018-04-23T12:07:25.982Z,57.04
2018-04-23T12:09:37.057Z,57.65
2018-04-23T12:11:48.138Z,56.69
2018-04-23T12:13:59.201Z,58.28
2018-04-23T12:16:10.491Z,55.65
2018-04-23T12:18:21.521Z,56.76
2018-04-23T12:20:32.626Z,57.30
2018-04-23T12:22:43.709Z,56.60
2018-04-23T12:24:54.766Z,57.67
2018-04-23T12:27:05.813Z,56.80
2018-04-23T12:29:16.945Z,57.19
2018-04-23T12:31:28.006Z,57.74
2018-04-23T12:33:39.079Z,58.15
2018-04-23T12:35:50.223Z,58.30
2018-04-23T12:38:01.282Z,57.15
2018-04-23T12:40:12.615Z,58.08
2018-04-23T12:42:23.944Z,57.18
2018-04-23T12:44:35.037Z,58.40
2018-04-23T12:46:46.091Z,59.26
2018-04-23T12:48:57.167Z,59.13
2018-04-23T12:51:08.237Z,59.36
2018-04-23T12:53:19.285Z,59.08
2018-04-23T12:55:30.450Z,59.62
2018-04-23T12:57:41.523Z,60.04
2018-04-23T12:59:52.690Z,60.01
2018-04-23T13:02:03.741Z,59.55
2018-04-23T13:04:14.811Z,59.56
2018-04-23T13:06:25.922Z,60.26
2018-04-23T13:08:36.980Z,60.71
2018-04-23T13:10:48.165Z,61.00
2018-04-23T13:12:59.242Z,61.21
2018-04-23T13:15:10.380Z,61.65
2018-04-23T13:17:21.471Z,62.06
2018-04-23T13:19:32.555Z,61.92
2018-04-23T13:21:43.632Z,61.02
2018-04-23T13:23:54.736Z,61.34
2018-04-23T13:26:05.768Z,61.09
2018-04-23T13:28:16.913Z,61.02
2018-04-23T13:30:28.076Z,61.76
2018-04-23T13:32:39.227Z,60.75
2018-04-23T13:34:50.339Z,60.65
2018-04-23T13:37:01.415Z,60.40
2018-04-23T13:39:12.521Z,60.60
2018-04-23T13:41:23.626Z,60.63
2018-04-23T13:43:34.669Z,60.38
2018-04-23T13:45:45.759Z,59.87
2018-04-23T13:47:56.915Z,60.22
2018-04-23T13:50:07.957Z,59.91
2018-04-23T13:52:19.098Z,60.00
2018-04-23T13:54:30.137Z,60.47
2018-04-23T13:56:41.177Z,59.59
2018-04-23T13:58:52.253Z,58.93
2018-04-23T14:01:03.301Z,58.13
2018-04-23T14:03:14.434Z,56.97
2018-04-23T14:05:25.530Z,57.43
2018-04-23T14:07:36.658Z,57.40
2018-04-23T14:09:47.710Z,57.26
2018-04-23T14:11:58.802Z,56.66
2018-04-23T14:14:10.381Z,56.48
2018-04-23T14:16:21.459Z,55.64
2018-04-23T14:18:32.755Z,55.18
2018-04-23T14:20:43.816Z,54.56
2018-04-23T14:22:54.878Z,54.16
2018-04-23T14:25:06.012Z,53.58
2018-04-23T14:27:17.190Z,53.76
2018-04-23T14:29:28.313Z,53.75
2018-04-23T14:31:39.403Z,53.77
2018-04-23T14:33:50.486Z,54.23
2018-04-23T14:36:01.543Z,54.67
2018-04-23T14:38:12.618Z,53.37
2018-04-23T14:40:23.751Z,54.07
2018-04-23T14:42:34.813Z,53.36
2018-04-23T14:44:45.877Z,53.52
2018-04-23T14:46:56.982Z,53.20
2018-04-23T14:49:08.083Z,52.91
2018-04-23T14:51:19.445Z,54.00
2018-04-23T14:53:30.493Z,54.09
2018-04-23T14:55:41.557Z,53.87
2018-04-23T14:57:52.613Z,53.97
2018-04-23T15:00:03.688Z,53.87
2018-04-23T15:02:14.814Z,54.18
2018-04-23T15:04:25.861Z,54.71
2018-04-23T15:06:37.034Z,54.24
2018-04-23T15:08:48.070Z,54.77
2018-04-23T15:10:59.209Z,54.20
2018-04-23T15:13:10.334Z,54.15
2018-04-23T15:15:21.371Z,54.81
2018-04-23T15:17:32.447Z,54.90
2018-04-23T15:19:43.493Z,54.69
2018-04-23T15:21:54.643Z,54.43
2018-04-23T15:24:05.767Z,54.17
2018-04-23T15:26:16.819Z,54.31
2018-04-23T15:28:27.952Z,54.41
2018-04-23T15:30:39.022Z,54.31
2018-04-23T15:32:50.791Z,54.19
2018-04-23T15:35:01.831Z,54.26
2018-04-23T15:37:12.902Z,54.06
2018-04-23T15:39:23.981Z,53.91
2018-04-23T15:41:35.130Z,54.08
2018-04-23T15:43:46.226Z,54.02
2018-04-23T15:45:57.339Z,54.43
2018-04-23T15:48:08.442Z,53.21
2018-04-23T15:50:19.647Z,53.35
2018-04-23T15:52:30.706Z,52.70
2018-04-23T15:54:41.797Z,53.00
2018-04-23T15:56:52.861Z,52.97
2018-04-23T15:59:03.947Z,53.29
2018-04-23T16:01:15.211Z,53.20
2018-04-23T16:03:26.922Z,53.18
2018-04-23T16:05:38.058Z,53.47
2018-04-23T16:07:49.170Z,53.60
2018-04-23T16:10:00.318Z,53.52
2018-04-23T16:12:11.390Z,54.15
2018-04-23T16:14:22.497Z,54.56
2018-04-23T16:16:33.719Z,54.52
2018-04-23T16:18:44.802Z,55.05
2018-04-23T16:20:55.875Z,54.35
2018-04-23T16:23:06.962Z,54.27
2018-04-23T16:25:18.038Z,54.42
2018-04-23T16:27:29.138Z,54.07
2018-04-23T16:29:40.213Z,54.42
2018-04-23T16:31:51.381Z,54.11
2018-04-23T16:34:02.486Z,54.19
2018-04-23T16:36:13.570Z,54.19
2018-04-23T16:38:24.638Z,54.14
2018-04-23T16:40:35.761Z,54.08
2018-04-23T16:42:46.809Z,54.38
2018-04-23T16:44:58.051Z,54.58
2018-04-23T16:47:09.217Z,54.75
2018-04-23T16:49:20.291Z,54.80
2018-04-23T16:51:31.465Z,54.39
2018-04-23T16:53:42.552Z,54.21
2018-04-23T16:55:53.649Z,54.46
2018-04-23T16:58:04.743Z,54.56
2018-04-23T17:00:15.797Z,54.34
2018-04-23T17:02:26.905Z,54.64
2018-04-23T17:04:38.097Z,54.64
2018-04-23T17:06:49.205Z,54.74
2018-04-23T17:09:00.339Z,54.59
2018-04-23T17:11:11.449Z,54.61
2018-04-23T17:13:22.517Z,54.39
2018-04-23T17:15:33.617Z,54.69
2018-04-23T17:17:44.706Z,55.15
2018-04-23T17:19:55.818Z,54.92
2018-04-23T17:22:06.961Z,54.58
2018-04-23T17:24:18.085Z,54.80
2018-04-23T17:26:29.146Z,54.69
2018-04-23T17:28:40.266Z,54.25
2018-04-23T17:30:51.350Z,54.65
2018-04-23T17:33:02.421Z,54.73
2018-04-23T17:35:13.554Z,54.52
2018-04-23T17:37:24.605Z,54.57
2018-04-23T17:39:35.795Z,54.47
2018-04-23T17:41:46.901Z,53.88
2018-04-23T17:43:58.053Z,54.40
2018-04-23T17:46:09.137Z,54.43
2018-04-23T17:48:20.211Z,54.17
2018-04-23T17:50:31.298Z,54.18
2018-04-23T17:52:42.400Z,53.72
2018-04-23T17:54:53.474Z,54.00
2018-04-23T17:57:04.603Z,54.13
2018-04-23T17:59:15.710Z,54.08
2018-04-23T18:01:26.790Z,54.06
2018-04-23T18:03:37.951Z,53.83
2018-04-23T18:05:49.065Z,54.13
2018-04-23T18:08:00.147Z,53.68
2018-04-23T18:10:11.335Z,53.93
2018-04-23T18:12:22.447Z,53.84
2018-04-23T18:14:33.501Z,54.01
2018-04-23T18:16:44.549Z,53.98
2018-04-23T18:18:55.677Z,54.22
2018-04-23T18:21:06.770Z,54.40
2018-04-23T18:23:17.950Z,54.24
2018-04-23T18:25:29.015Z,54.38
2018-04-23T18:27:40.143Z,54.16
2018-04-23T18:29:51.217Z,54.20
2018-04-23T18:32:02.274Z,54.21
2018-04-23T18:34:13.410Z,54.33
2018-04-23T18:36:24.536Z,54.53
2018-04-23T18:38:35.705Z,54.44
2018-04-23T18:40:46.787Z,54.09
2018-04-23T18:42:58.002Z,54.19
2018-04-23T18:45:09.161Z,54.54
2018-04-23T18:47:20.190Z,54.54
2018-04-23T18:49:31.339Z,54.59
2018-04-23T18:51:42.411Z,54.57
2018-04-23T18:53:53.652Z,54.57
2018-04-23T18:56:04.718Z,54.85
2018-04-23T18:58:15.949Z,54.97
2018-04-23T19:00:27.050Z,55.22
2018-04-23T19:02:38.249Z,55.45
2018-04-23T19:04:49.311Z,55.14
2018-04-23T19:07:00.466Z,55.25
2018-04-23T19:09:11.529Z,55.59
2018-04-23T19:11:22.653Z,55.91
2018-04-23T19:13:33.786Z,55.79
2018-04-23T19:15:44.911Z,55.80
2018-04-23T19:17:56.051Z,55.92
2018-04-23T19:20:07.197Z,55.85
2018-04-23T19:22:18.358Z,56.22
2018-04-23T19:24:29.474Z,56.35
2018-04-23T19:26:40.583Z,56.32
2018-04-23T19:28:51.686Z,56.39
2018-04-23T19:31:02.768Z,56.53
2018-04-23T19:33:13.961Z,56.43
2018-04-23T19:35:25.043Z,56.33
2018-04-23T19:37:36.214Z,56.42
2018-04-23T19:39:47.267Z,56.57
2018-04-23T19:41:58.445Z,56.84
2018-04-23T19:44:09.563Z,56.86
2018-04-23T19:46:20.716Z,57.10
2018-04-23T19:48:31.739Z,57.01
2018-04-23T19:50:42.795Z,57.33
2018-04-23T19:52:53.912Z,57.13
2018-04-23T19:55:05.004Z,57.00
2018-04-23T19:57:16.307Z,57.20
2018-04-23T19:59:27.406Z,57.00
2018-04-23T20:01:38.542Z,56.90
2018-04-23T20:03:49.629Z,56.75
2018-04-23T20:06:00.761Z,56.87
2018-04-23T20:08:11.855Z,56.65
2018-04-23T20:10:22.892Z,56.57
2018-04-23T20:12:34.088Z,56.70
2018-04-23T20:14:45.190Z,57.04
2018-04-23T20:16:56.382Z,56.89
2018-04-23T20:19:07.495Z,56.88
2018-04-23T20:21:18.586Z,56.88
2018-04-23T20:23:29.666Z,56.99
2018-04-23T20:25:40.736Z,57.12
2018-04-23T20:27:51.941Z,57.12
2018-04-23T20:30:03.054Z,57.23
2018-04-23T20:32:14.219Z,57.13
2018-04-23T20:34:25.306Z,57.27
2018-04-23T20:36:36.416Z,57.28
2018-04-23T20:38:47.525Z,57.54
2018-04-23T20:40:58.654Z,57.70
2018-04-23T20:43:09.965Z,57.89
2018-04-23T20:45:21.070Z,58.06
2018-04-23T20:47:32.136Z,57.93
2018-04-23T20:49:43.222Z,58.25
2018-04-23T20:51:54.382Z,58.11
2018-04-23T20:54:05.441Z,58.12
2018-04-23T20:56:16.554Z,58.60
2018-04-23T20:58:27.649Z,58.56
2018-04-23T21:00:38.720Z,58.65
2018-04-23T21:02:49.793Z,58.75
2018-04-23T21:05:00.921Z,58.72
2018-04-23T21:07:12.010Z,59.00
2018-04-23T21:09:23.099Z,59.13
2018-04-23T21:11:34.297Z,59.25
2018-04-23T21:13:45.358Z,59.32
2018-04-23T21:15:56.606Z,59.69
2018-04-23T21:18:07.736Z,59.34
2018-04-23T21:20:18.833Z,59.50
2018-04-23T21:22:29.974Z,59.97
2018-04-23T21:24:41.034Z,59.79
2018-04-23T21:26:52.116Z,59.91
2018-04-23T21:29:03.200Z,59.73
2018-04-23T21:31:14.370Z,59.79
2018-04-23T21:33:25.445Z,59.81
2018-04-23T21:35:36.565Z,59.96
2018-04-23T21:37:47.627Z,59.64
2018-04-23T21:39:58.701Z,59.88
2018-04-23T21:42:09.817Z,60.06
2018-04-23T21:44:20.958Z,59.84
2018-04-23T21:46:32.062Z,59.71
2018-04-23T21:48:43.174Z,59.88
2018-04-23T21:50:54.334Z,59.67
2018-04-23T21:53:05.398Z,59.53
2018-04-23T21:55:16.434Z,59.64
2018-04-23T21:57:27.498Z,59.59
2018-04-23T21:59:38.566Z,59.46
2018-04-23T22:01:49.665Z,59.41
2018-04-23T22:04:00.742Z,59.49
2018-04-23T22:06:11.838Z,59.46
2018-04-23T22:08:22.918Z,59.52
2018-04-23T22:10:34.006Z,59.57
2018-04-23T22:12:45.098Z,59.60
2018-04-23T22:14:56.198Z,59.63
2018-04-23T22:17:07.255Z,59.81
2018-04-23T22:19:18.421Z,59.80
2018-04-23T22:21:29.506Z,59.86
2018-04-23T22:23:40.686Z,60.19
2018-04-23T22:25:51.741Z,60.26
2018-04-23T22:28:02.890Z,60.17
2018-04-23T22:30:13.945Z,60.26
2018-04-23T22:32:25.053Z,60.16
2018-04-23T22:34:36.126Z,60.15
2018-04-23T22:36:47.177Z,60.12
2018-04-23T22:38:58.305Z,60.21
2018-04-23T22:41:09.382Z,60.11
2018-04-23T22:43:20.609Z,60.16
2018-04-23T22:45:31.671Z,60.14
2018-04-23T22:47:42.726Z,60.07
2018-04-23T22:49:53.794Z,60.07
2018-04-23T22:52:04.845Z,60.17
2018-04-23T22:54:15.950Z,60.25
2018-04-23T22:56:26.998Z,60.32
2018-04-23T22:58:38.042Z,60.50
2018-04-23T23:00:49.179Z,60.55
2018-04-23T23:03:00.240Z,60.75
2018-04-23T23:05:11.321Z,60.84
2018-04-23T23:07:22.378Z,60.99
2018-04-23T23:09:33.475Z,61.13
2018-04-23T23:11:44.606Z,61.02
2018-04-23T23:13:55.651Z,60.85
2018-04-23T23:16:06.795Z,60.76
2018-04-23T23:18:17.874Z,60.63
2018-04-23T23:20:29.002Z,60.80
2018-04-23T23:22:40.069Z,60.61
2018-04-23T23:24:51.129Z,60.99
2018-04-23T23:27:02.205Z,60.84
2018-04-23T23:29:13.346Z,60.77
2018-04-23T23:31:24.491Z,61.00
2018-04-23T23:33:35.564Z,61.07
2018-04-23T23:35:46.620Z,61.10
2018-04-23T23:37:57.697Z,61.22
2018-04-23T23:40:08.776Z,61.43
2018-04-23T23:42:19.857Z,61.15
2018-04-23T23:44:30.910Z,61.16
2018-04-23T23:46:42.023Z,61.13
2018-04-23T23:48:53.091Z,61.20
2018-04-23T23:51:04.157Z,61.19
2018-04-23T23:53:15.294Z,61.37
2018-04-23T23:55:26.390Z,61.65
2018-04-23T23:57:37.457Z,61.52
2018-04-23T23:59:48.491Z,61.61
